Time,TemperatureF,DewpointF,PressureIn,WindDirection,WindDirectionDegrees,WindSpeedMPH,WindSpeedGustMPH,Humidity,HourlyPrecipIn,Conditions,Clouds,dailyrainin,SoftwareType,DateUTC
2013-03-15 00:00:00,39.0,32.4,30.15,West,264,0.0,0.0,77,0.00,,,0.00,Wunderground v.1.15,2013-03-15 04:00:00,
2013-03-15 00:05:00,38.8,32.5,30.15,West,264,0.0,0.0,78,0.00,,,0.00,Wunderground v.1.15,2013-03-15 04:05:00,
2013-03-15 00:10:00,38.6,32.0,30.15,West,264,0.0,0.0,77,0.00,,,0.00,Wunderground v.1.15,2013-03-15 04:10:00,
2013-03-15 00:20:00,38.0,31.7,30.15,West,264,0.0,0.0,78,0.00,,,0.00,Wunderground v.1.15,2013-03-15 04:20:00,
2013-03-15 00:25:00,37.8,31.9,30.15,West,264,0.0,0.0,79,0.00,,,0.00,Wunderground v.1.15,2013-03-15 04:25:00,
2013-03-15 00:35:00,37.4,31.8,30.15,West,264,0.0,0.0,80,0.00,,,0.00,Wunderground v.1.15,2013-03-15 04:35:00,
2013-03-15 00:40:00,37.3,32.3,30.16,West,264,0.0,0.0,82,0.00,,,0.00,Wunderground v.1.15,2013-03-15 04:40:00,
2013-03-15 00:50:00,37.2,32.5,30.16,West,264,0.0,0.0,83,0.00,,,0.00,Wunderground v.1.15,2013-03-15 04:50:00,
2013-03-15 01:00:00,36.9,32.2,30.15,West,264,0.0,0.0,83,0.00,,,0.00,Wunderground v.1.15,2013-03-15 05:00:00,
2013-03-15 01:05:00,36.8,31.8,30.15,West,264,0.0,0.0,82,0.00,,,0.00,Wunderground v.1.15,2013-03-15 05:05:00,
2013-03-15 01:15:00,36.6,31.6,30.15,West,264,0.0,0.0,82,0.00,,,0.00,Wunderground v.1.15,2013-03-15 05:15:00,
2013-03-15 01:25:00,36.2,31.2,30.15,West,264,0.0,0.0,82,0.00,,,0.00,Wunderground v.1.15,2013-03-15 05:25:00,
2013-03-15 01:35:00,35.7,30.7,30.15,West,264,0.0,0.0,82,0.00,,,0.00,Wunderground v.1.15,2013-03-15 05:35:00,
2013-03-15 01:40:00,35.5,30.8,30.15,West,264,0.0,0.0,83,0.00,,,0.00,Wunderground v.1.15,2013-03-15 05:40:00,
2013-03-15 01:50:00,35.2,30.9,30.15,West,264,0.0,0.0,84,0.00,,,0.00,Wunderground v.1.15,2013-03-15 05:50:00,
2013-03-15 01:55:00,35.0,30.7,30.15,West,264,0.0,0.0,84,0.00,,,0.00,Wunderground v.1.15,2013-03-15 05:55:00,
2013-03-15 02:05:00,34.8,31.0,30.15,West,264,0.0,0.0,86,0.00,,,0.00,Wunderground v.1.15,2013-03-15 06:05:00,
2013-03-15 02:10:00,35.0,31.2,30.15,West,264,0.0,0.0,86,0.00,,,0.00,Wunderground v.1.15,2013-03-15 06:10:00,
2013-03-15 02:20:00,35.0,31.2,30.15,West,264,0.0,0.0,86,0.00,,,0.00,Wunderground v.1.15,2013-03-15 06:20:00,
2013-03-15 02:30:00,34.9,30.8,30.15,West,264,0.0,0.0,85,0.00,,,0.00,Wunderground v.1.15,2013-03-15 06:30:00,
2013-03-15 02:35:00,34.8,30.8,30.15,West,264,0.0,0.0,85,0.00,,,0.00,Wunderground v.1.15,2013-03-15 06:35:00,
2013-03-15 02:45:00,34.6,30.6,30.15,West,264,0.0,0.0,85,0.00,,,0.00,Wunderground v.1.15,2013-03-15 06:45:00,
2013-03-15 02:50:00,34.5,30.7,30.15,West,264,0.0,0.0,86,0.00,,,0.00,Wunderground v.1.15,2013-03-15 06:50:00,
2013-03-15 03:00:00,34.5,31.0,30.15,West,264,0.0,0.0,87,0.00,,,0.00,Wunderground v.1.15,2013-03-15 07:00:00,
2013-03-15 03:05:00,34.5,31.3,30.15,West,264,0.0,0.0,88,0.00,,,0.00,Wunderground v.1.15,2013-03-15 07:05:00,
2013-03-15 03:15:00,34.6,31.4,30.14,West,264,0.0,0.0,88,0.00,,,0.00,Wunderground v.1.15,2013-03-15 07:15:00,
2013-03-15 03:25:00,34.4,30.9,30.14,West,264,0.0,0.0,87,0.00,,,0.00,Wunderground v.1.15,2013-03-15 07:25:00,
2013-03-15 03:35:00,34.2,30.7,30.14,West,264,0.0,0.0,87,0.00,,,0.00,Wunderground v.1.15,2013-03-15 07:35:00,
2013-03-15 03:45:00,33.9,30.7,30.14,West,264,0.0,0.0,88,0.00,,,0.00,Wunderground v.1.15,2013-03-15 07:45:00,
2013-03-15 03:55:00,33.7,30.2,30.14,West,264,0.0,0.0,87,0.00,,,0.00,Wunderground v.1.15,2013-03-15 07:55:00,
2013-03-15 04:00:00,33.5,30.3,30.14,West,264,0.0,0.0,88,0.00,,,0.00,Wunderground v.1.15,2013-03-15 08:00:00,
2013-03-15 04:10:00,33.3,30.1,30.13,West,264,0.0,0.0,88,0.00,,,0.00,Wunderground v.1.15,2013-03-15 08:10:00,
2013-03-15 04:15:00,33.2,30.3,30.14,West,264,0.0,0.0,89,0.00,,,0.00,Wunderground v.1.15,2013-03-15 08:15:00,
2013-03-15 04:25:00,33.3,30.7,30.14,West,264,0.0,0.0,90,0.00,,,0.00,Wunderground v.1.15,2013-03-15 08:25:00,
2013-03-15 04:30:00,33.2,30.3,30.14,West,264,0.0,0.0,89,0.00,,,0.00,Wunderground v.1.15,2013-03-15 08:30:00,
2013-03-15 04:40:00,32.8,29.9,30.14,West,264,0.0,0.0,89,0.00,,,0.00,Wunderground v.1.15,2013-03-15 08:40:00,
2013-03-15 04:50:00,32.6,29.7,30.14,West,264,0.0,0.0,89,0.00,,,0.00,Wunderground v.1.15,2013-03-15 08:50:00,
2013-03-15 04:55:00,32.5,29.6,30.14,West,264,0.0,0.0,89,0.00,,,0.00,Wunderground v.1.15,2013-03-15 08:55:00,
2013-03-15 05:05:00,32.2,29.3,30.14,West,264,0.0,0.0,89,0.00,,,0.00,Wunderground v.1.15,2013-03-15 09:05:00,
2013-03-15 05:15:00,32.1,29.5,30.14,West,264,0.0,0.0,90,0.00,,,0.00,Wunderground v.1.15,2013-03-15 09:15:00,
2013-03-15 05:25:00,31.9,29.3,30.15,West,264,0.0,0.0,90,0.00,,,0.00,Wunderground v.1.15,2013-03-15 09:25:00,
2013-03-15 05:35:00,31.7,29.1,30.15,West,264,0.0,0.0,90,0.00,,,0.00,Wunderground v.1.15,2013-03-15 09:35:00,
2013-03-15 05:45:00,31.5,28.9,30.15,West,264,0.0,0.0,90,0.00,,,0.00,Wunderground v.1.15,2013-03-15 09:45:00,
2013-03-15 05:55:00,31.3,28.7,30.15,West,264,0.0,0.0,90,0.00,,,0.00,Wunderground v.1.15,2013-03-15 09:55:00,
2013-03-15 06:05:00,31.2,28.9,30.16,West,264,0.0,0.0,91,0.00,,,0.00,Wunderground v.1.15,2013-03-15 10:05:00,
2013-03-15 06:15:00,31.1,28.8,30.16,West,264,0.0,0.0,91,0.00,,,0.00,Wunderground v.1.15,2013-03-15 10:15:00,
2013-03-15 06:25:00,30.9,28.6,30.16,West,264,0.0,0.0,91,0.00,,,0.00,Wunderground v.1.15,2013-03-15 10:25:00,
2013-03-15 06:35:00,30.8,28.5,30.17,West,264,0.0,0.0,91,0.00,,,0.00,Wunderground v.1.15,2013-03-15 10:35:00,
2013-03-15 06:40:00,30.9,28.9,30.17,West,264,0.0,0.0,92,0.00,,,0.00,Wunderground v.1.15,2013-03-15 10:40:00,
2013-03-15 06:50:00,31.2,29.4,30.18,West,264,0.0,0.0,93,0.00,,,0.00,Wunderground v.1.15,2013-03-15 10:50:00,
2013-03-15 07:00:00,31.1,29.0,30.18,West,264,0.0,0.0,92,0.00,,,0.00,Wunderground v.1.15,2013-03-15 11:00:00,
2013-03-15 07:10:00,31.1,29.3,30.18,West,264,0.0,0.0,93,0.00,,,0.00,Wunderground v.1.15,2013-03-15 11:10:00,
2013-03-15 07:20:00,31.0,28.9,30.17,West,264,0.0,0.0,92,0.00,,,0.00,Wunderground v.1.15,2013-03-15 11:20:00,
2013-03-15 07:25:00,30.9,28.9,30.17,West,264,0.0,0.0,92,0.00,,,0.00,Wunderground v.1.15,2013-03-15 11:25:00,
2013-03-15 07:35:00,30.8,28.8,30.17,West,264,0.0,0.0,92,0.00,,,0.00,Wunderground v.1.15,2013-03-15 11:35:00,
2013-03-15 07:45:00,31.0,29.2,30.17,West,264,0.0,0.0,93,0.00,,,0.00,Wunderground v.1.15,2013-03-15 11:45:00,
2013-03-15 07:55:00,31.3,29.8,30.17,West,264,0.0,0.0,94,0.00,,,0.00,Wunderground v.1.15,2013-03-15 11:55:00,
2013-03-15 08:05:00,31.5,30.0,30.18,West,264,0.0,0.0,94,0.00,,,0.00,Wunderground v.1.15,2013-03-15 12:05:00,
2013-03-15 08:10:00,32.0,30.5,30.17,West,264,0.0,0.0,94,0.00,,,0.00,Wunderground v.1.15,2013-03-15 12:10:00,
2013-03-15 08:20:00,33.2,31.7,30.18,West,264,0.0,0.0,94,0.00,,,0.00,Wunderground v.1.15,2013-03-15 12:20:00,
2013-03-15 08:30:00,34.8,33.0,30.18,West,264,0.0,0.0,93,0.00,,,0.00,Wunderground v.1.15,2013-03-15 12:30:00,
2013-03-15 08:40:00,36.7,34.6,30.18,West,264,0.0,0.0,92,0.00,,,0.00,Wunderground v.1.15,2013-03-15 12:40:00,
2013-03-15 08:50:00,38.3,35.1,30.18,West,264,0.0,0.0,88,0.00,,,0.00,Wunderground v.1.15,2013-03-15 12:50:00,
2013-03-15 09:00:00,39.7,33.7,30.18,West,264,0.0,0.0,79,0.00,,,0.00,Wunderground v.1.15,2013-03-15 13:00:00,
2013-03-15 09:10:00,41.4,32.7,30.18,West,264,0.0,0.0,71,0.00,,,0.00,Wunderground v.1.15,2013-03-15 13:10:00,
2013-03-15 09:20:00,43.2,31.8,30.19,West,264,0.0,0.0,64,0.00,,,0.00,Wunderground v.1.15,2013-03-15 13:20:00,
2013-03-15 09:30:00,44.7,30.8,30.19,West,264,0.0,0.0,58,0.00,,,0.00,Wunderground v.1.15,2013-03-15 13:30:00,
2013-03-15 09:40:00,46.0,28.9,30.19,East,84,1.0,2.0,51,0.00,,,0.00,Wunderground v.1.15,2013-03-15 13:40:00,
2013-03-15 09:45:00,46.4,29.7,30.19,East,82,1.0,2.0,52,0.00,,,0.00,Wunderground v.1.15,2013-03-15 13:45:00,
2013-03-15 09:55:00,47.3,28.1,30.18,East,87,1.0,1.0,47,0.00,,,0.00,Wunderground v.1.15,2013-03-15 13:55:00,
2013-03-15 10:00:00,47.9,28.1,30.18,East,83,2.0,2.0,46,0.00,,,0.00,Wunderground v.1.15,2013-03-15 14:00:00,
2013-03-15 10:10:00,49.1,27.5,30.18,SE,134,1.0,4.0,43,0.00,,,0.00,Wunderground v.1.15,2013-03-15 14:10:00,
2013-03-15 10:20:00,49.8,24.5,30.18,East,85,3.0,3.0,37,0.00,,,0.00,Wunderground v.1.15,2013-03-15 14:20:00,
2013-03-15 10:30:00,50.3,23.7,30.18,SE,128,3.0,3.0,35,0.00,,,0.00,Wunderground v.1.15,2013-03-15 14:30:00,
2013-03-15 10:40:00,51.3,23.8,30.18,ENE,74,1.0,1.0,34,0.00,,,0.00,Wunderground v.1.15,2013-03-15 14:40:00,
2013-03-15 10:50:00,52.1,23.8,30.18,ESE,121,2.0,2.0,33,0.00,,,0.00,Wunderground v.1.15,2013-03-15 14:50:00,
2013-03-15 10:55:00,52.5,23.5,30.18,East,90,2.0,2.0,32,0.00,,,0.00,Wunderground v.1.15,2013-03-15 14:55:00,
2013-03-15 11:05:00,53.1,24.0,30.17,ESE,115,3.0,4.0,32,0.00,,,0.00,Wunderground v.1.15,2013-03-15 15:05:00,
2013-03-15 11:15:00,53.5,24.3,30.17,SSE,163,3.0,3.0,32,0.00,,,0.00,Wunderground v.1.15,2013-03-15 15:15:00,
2013-03-15 11:25:00,53.9,23.9,30.17,ESE,111,3.0,3.0,31,0.00,,,0.00,Wunderground v.1.15,2013-03-15 15:25:00,
2013-03-15 11:30:00,53.9,24.7,30.17,SE,125,3.0,3.0,32,0.00,,,0.00,Wunderground v.1.15,2013-03-15 15:30:00,
2013-03-15 11:35:00,54.1,24.1,30.17,East,90,2.0,3.0,31,0.00,,,0.00,Wunderground v.1.15,2013-03-15 15:35:00,
2013-03-15 11:45:00,54.1,24.1,30.17,SE,124,3.0,4.0,31,0.00,,,0.00,Wunderground v.1.15,2013-03-15 15:45:00,
2013-03-15 11:50:00,54.3,25.8,30.16,SE,133,3.0,6.0,33,0.00,,,0.00,Wunderground v.1.15,2013-03-15 15:50:00,
2013-03-15 11:55:00,54.6,25.3,30.16,East,79,3.0,6.0,32,0.00,,,0.00,Wunderground v.1.15,2013-03-15 15:55:00,
2013-03-15 12:00:00,54.9,25.6,30.16,SE,145,3.0,4.0,32,0.00,,,0.00,Wunderground v.1.15,2013-03-15 16:00:00,
2013-03-15 12:10:00,55.2,26.6,30.15,SE,131,3.0,3.0,33,0.00,,,0.00,Wunderground v.1.15,2013-03-15 16:10:00,
2013-03-15 12:20:00,55.6,25.4,30.15,ESE,113,4.0,4.0,31,0.00,,,0.00,Wunderground v.1.15,2013-03-15 16:20:00,
2013-03-15 12:25:00,55.2,27.3,30.15,SE,140,4.0,4.0,34,0.00,,,0.00,Wunderground v.1.15,2013-03-15 16:25:00,
2013-03-15 12:35:00,55.4,27.5,30.14,SE,146,4.0,5.0,34,0.00,,,0.00,Wunderground v.1.15,2013-03-15 16:35:00,
2013-03-15 12:45:00,55.2,28.0,30.14,SE,138,4.0,4.0,35,0.00,,,0.00,Wunderground v.1.15,2013-03-15 16:45:00,
2013-03-15 12:55:00,55.8,28.5,30.14,East,88,4.0,5.0,35,0.00,,,0.00,Wunderground v.1.15,2013-03-15 16:55:00,
2013-03-15 13:00:00,55.8,29.2,30.13,SE,126,4.0,4.0,36,0.00,,,0.00,Wunderground v.1.15,2013-03-15 17:00:00,
2013-03-15 13:10:00,55.9,30.0,30.13,ESE,119,4.0,5.0,37,0.00,,,0.00,Wunderground v.1.15,2013-03-15 17:10:00,
2013-03-15 13:20:00,55.5,30.3,30.12,ESE,118,6.0,6.0,38,0.00,,,0.00,Wunderground v.1.15,2013-03-15 17:20:00,
2013-03-15 13:30:00,55.1,31.8,30.11,SE,132,6.0,6.0,41,0.00,,,0.00,Wunderground v.1.15,2013-03-15 17:30:00,
2013-03-15 13:40:00,56.2,32.8,30.10,East,98,5.0,5.0,41,0.00,,,0.00,Wunderground v.1.15,2013-03-15 17:40:00,
2013-03-15 13:45:00,56.6,31.3,30.10,ESE,123,5.0,7.0,38,0.00,,,0.00,Wunderground v.1.15,2013-03-15 17:45:00,
2013-03-15 13:55:00,56.3,32.3,30.10,SSW,193,5.0,5.0,40,0.00,,,0.00,Wunderground v.1.15,2013-03-15 17:55:00,
2013-03-15 14:05:00,56.4,32.4,30.09,East,98,5.0,7.0,40,0.00,,,0.00,Wunderground v.1.15,2013-03-15 18:05:00,
2013-03-15 14:15:00,56.3,32.9,30.08,ESE,123,5.0,5.0,41,0.00,,,0.00,Wunderground v.1.15,2013-03-15 18:15:00,
2013-03-15 14:20:00,56.3,34.1,30.08,SE,128,5.0,6.0,43,0.00,,,0.00,Wunderground v.1.15,2013-03-15 18:20:00,
2013-03-15 14:30:00,56.5,34.3,30.08,ESE,121,6.0,6.0,43,0.00,,,0.00,Wunderground v.1.15,2013-03-15 18:30:00,
2013-03-15 14:35:00,56.3,34.1,30.08,East,92,5.0,6.0,43,0.00,,,0.00,Wunderground v.1.15,2013-03-15 18:35:00,
2013-03-15 14:45:00,58.0,34.4,30.07,SE,130,4.0,4.0,41,0.00,,,0.00,Wunderground v.1.15,2013-03-15 18:45:00,
2013-03-15 14:50:00,58.1,35.1,30.06,SE,133,4.0,4.0,42,0.00,,,0.00,Wunderground v.1.15,2013-03-15 18:50:00,
2013-03-15 15:00:00,58.1,35.7,30.06,ESE,119,4.0,8.0,43,0.00,,,0.00,Wunderground v.1.15,2013-03-15 19:00:00,
2013-03-15 15:10:00,57.8,36.0,30.06,ESE,123,5.0,7.0,44,0.00,,,0.00,Wunderground v.1.15,2013-03-15 19:10:00,
2013-03-15 15:15:00,57.5,36.3,30.06,ESE,114,5.0,8.0,45,0.00,,,0.00,Wunderground v.1.15,2013-03-15 19:15:00,
2013-03-15 15:25:00,57.6,37.5,30.05,SSE,165,5.0,6.0,47,0.00,,,0.00,Wunderground v.1.15,2013-03-15 19:25:00,
2013-03-15 15:35:00,58.0,37.3,30.05,SSE,158,5.0,5.0,46,0.00,,,0.00,Wunderground v.1.15,2013-03-15 19:35:00,
2013-03-15 15:40:00,57.8,37.1,30.04,ESE,114,5.0,5.0,46,0.00,,,0.00,Wunderground v.1.15,2013-03-15 19:40:00,
2013-03-15 15:50:00,58.2,37.5,30.04,SSE,148,5.0,5.0,46,0.00,,,0.00,Wunderground v.1.15,2013-03-15 19:50:00,
2013-03-15 16:00:00,58.6,37.9,30.03,SSE,155,5.0,7.0,46,0.00,,,0.00,Wunderground v.1.15,2013-03-15 20:00:00,
2013-03-15 16:05:00,58.5,38.3,30.03,SSE,167,5.0,7.0,47,0.00,,,0.00,Wunderground v.1.15,2013-03-15 20:05:00,
2013-03-15 16:15:00,58.6,39.0,30.03,East,92,5.0,10.0,48,0.00,,,0.00,Wunderground v.1.15,2013-03-15 20:15:00,
2013-03-15 16:25:00,58.9,39.2,30.02,SE,130,5.0,5.0,48,0.00,,,0.00,Wunderground v.1.15,2013-03-15 20:25:00,
2013-03-15 16:30:00,58.4,38.8,30.02,SSE,151,5.0,5.0,48,0.00,,,0.00,Wunderground v.1.15,2013-03-15 20:30:00,
2013-03-15 16:40:00,58.5,38.3,30.02,SE,124,5.0,5.0,47,0.00,,,0.00,Wunderground v.1.15,2013-03-15 20:40:00,
2013-03-15 16:50:00,59.0,38.8,30.01,SSW,192,4.0,5.0,47,0.00,,,0.00,Wunderground v.1.15,2013-03-15 20:50:00,
2013-03-15 16:55:00,59.3,39.6,30.01,SSE,165,4.0,5.0,48,0.00,,,0.00,Wunderground v.1.15,2013-03-15 20:55:00,
2013-03-15 17:05:00,59.4,40.2,30.00,SSE,151,4.0,5.0,49,0.00,,,0.00,Wunderground v.1.15,2013-03-15 21:05:00,
2013-03-15 17:10:00,59.3,40.1,30.00,SE,143,4.0,4.0,49,0.00,,,0.00,Wunderground v.1.15,2013-03-15 21:10:00,
2013-03-15 17:20:00,59.7,41.0,30.00,ENE,67,3.0,3.0,50,0.00,,,0.00,Wunderground v.1.15,2013-03-15 21:20:00,
2013-03-15 17:25:00,59.8,40.1,29.99,SSE,152,3.0,4.0,48,0.00,,,0.00,Wunderground v.1.15,2013-03-15 21:25:00,
2013-03-15 17:35:00,59.7,40.0,29.99,SE,145,4.0,5.0,48,0.00,,,0.00,Wunderground v.1.15,2013-03-15 21:35:00,
2013-03-15 17:40:00,59.2,40.6,29.99,SE,126,3.0,3.0,50,0.00,,,0.00,Wunderground v.1.15,2013-03-15 21:40:00,
2013-03-15 17:50:00,59.4,40.7,29.99,South,178,3.0,3.0,50,0.00,,,0.00,Wunderground v.1.15,2013-03-15 21:50:00,
2013-03-15 17:55:00,59.4,41.3,29.99,SE,126,2.0,3.0,51,0.00,,,0.00,Wunderground v.1.15,2013-03-15 21:55:00,
2013-03-15 18:05:00,58.3,42.2,29.99,SSE,150,4.0,4.0,55,0.00,,,0.00,Wunderground v.1.15,2013-03-15 22:05:00,
2013-03-15 18:15:00,57.7,42.1,29.99,SSE,150,4.0,4.0,56,0.00,,,0.00,Wunderground v.1.15,2013-03-15 22:15:00,
2013-03-15 18:25:00,57.2,42.5,29.99,SE,134,3.0,3.0,58,0.00,,,0.00,Wunderground v.1.15,2013-03-15 22:25:00,
2013-03-15 18:30:00,56.7,43.0,29.99,SE,131,3.0,4.0,60,0.00,,,0.00,Wunderground v.1.15,2013-03-15 22:30:00,
2013-03-15 18:40:00,56.1,43.3,29.99,SSE,165,3.0,3.0,62,0.00,,,0.00,Wunderground v.1.15,2013-03-15 22:40:00,
2013-03-15 18:45:00,55.9,43.5,29.99,SSE,154,4.0,4.0,63,0.00,,,0.00,Wunderground v.1.15,2013-03-15 22:45:00,
2013-03-15 18:55:00,55.6,44.0,29.99,SSE,161,3.0,3.0,65,0.00,,,0.00,Wunderground v.1.15,2013-03-15 22:55:00,
2013-03-15 19:00:00,55.4,44.2,29.99,South,178,3.0,4.0,66,0.00,,,0.00,Wunderground v.1.15,2013-03-15 23:00:00,
2013-03-15 19:10:00,55.1,44.7,29.99,South,186,4.0,4.0,68,0.00,,,0.00,Wunderground v.1.15,2013-03-15 23:10:00,
2013-03-15 19:20:00,54.8,44.8,29.99,ESE,117,2.0,2.0,69,0.00,,,0.00,Wunderground v.1.15,2013-03-15 23:20:00,
2013-03-15 19:30:00,54.4,44.8,29.99,SSE,151,1.0,1.0,70,0.00,,,0.00,Wunderground v.1.15,2013-03-15 23:30:00,
2013-03-15 19:35:00,54.2,44.6,29.99,SSE,151,1.0,1.0,70,0.00,,,0.00,Wunderground v.1.15,2013-03-15 23:35:00,
2013-03-15 19:45:00,53.9,44.7,29.99,SE,146,1.0,1.0,71,0.00,,,0.00,Wunderground v.1.15,2013-03-15 23:45:00,
2013-03-15 19:50:00,53.7,44.5,29.99,SE,146,1.0,1.0,71,0.00,,,0.00,Wunderground v.1.15,2013-03-15 23:50:00,
2013-03-15 20:00:00,53.3,44.1,29.99,SE,146,0.0,0.0,71,0.00,,,0.00,Wunderground v.1.15,2013-03-16 00:00:00,
2013-03-15 20:05:00,53.0,43.5,29.99,SE,146,0.0,1.0,70,0.00,,,0.00,Wunderground v.1.15,2013-03-16 00:05:00,
2013-03-15 20:15:00,52.8,42.9,29.99,SSE,153,1.0,1.0,69,0.00,,,0.00,Wunderground v.1.15,2013-03-16 00:15:00,
2013-03-15 20:20:00,52.7,42.0,29.99,SSW,194,1.0,1.0,67,0.00,,,0.00,Wunderground v.1.15,2013-03-16 00:20:00,
2013-03-15 20:30:00,52.8,41.4,29.99,South,176,1.0,2.0,65,0.00,,,0.00,Wunderground v.1.15,2013-03-16 00:30:00,
2013-03-15 20:35:00,53.0,41.1,29.99,South,183,2.0,2.0,64,0.00,,,0.00,Wunderground v.1.15,2013-03-16 00:35:00,
2013-03-15 20:45:00,52.9,40.6,29.99,SSW,200,1.0,3.0,63,0.00,,,0.00,Wunderground v.1.15,2013-03-16 00:45:00,
2013-03-15 20:55:00,52.9,40.6,29.99,South,188,1.0,3.0,63,0.00,,,0.00,Wunderground v.1.15,2013-03-16 00:55:00,
2013-03-15 21:05:00,52.7,40.5,29.99,South,173,1.0,2.0,63,0.00,,,0.00,Wunderground v.1.15,2013-03-16 01:05:00,
2013-03-15 21:15:00,52.3,40.5,29.99,SSW,196,1.0,3.0,64,0.00,,,0.00,Wunderground v.1.15,2013-03-16 01:15:00,
2013-03-15 21:25:00,52.2,40.8,29.99,South,169,2.0,2.0,65,0.00,,,0.00,Wunderground v.1.15,2013-03-16 01:25:00,
2013-03-15 21:35:00,52.1,41.1,29.99,SSE,157,2.0,2.0,66,0.00,,,0.00,Wunderground v.1.15,2013-03-16 01:35:00,
2013-03-15 21:45:00,52.2,41.2,29.99,South,173,2.0,2.0,66,0.00,,,0.00,Wunderground v.1.15,2013-03-16 01:45:00,
2013-03-15 21:55:00,52.4,41.4,29.99,South,172,1.0,2.0,66,0.00,,,0.00,Wunderground v.1.15,2013-03-16 01:55:00,
2013-03-15 22:00:00,52.7,41.7,29.99,SSE,149,2.0,2.0,66,0.00,,,0.00,Wunderground v.1.15,2013-03-16 02:00:00,
2013-03-15 22:10:00,53.2,41.7,29.99,WSW,250,3.0,4.0,65,0.00,,,0.00,Wunderground v.1.15,2013-03-16 02:10:00,
2013-03-15 22:20:00,53.5,41.6,29.99,South,188,3.0,5.0,64,0.00,,,0.00,Wunderground v.1.15,2013-03-16 02:20:00,
2013-03-15 22:30:00,53.7,41.8,29.98,SSW,198,2.0,2.0,64,0.00,,,0.00,Wunderground v.1.15,2013-03-16 02:30:00,
2013-03-15 22:35:00,53.8,41.9,29.98,SSW,196,2.0,2.0,64,0.00,,,0.00,Wunderground v.1.15,2013-03-16 02:35:00,
2013-03-15 22:45:00,54.2,41.9,29.99,South,182,3.0,4.0,63,0.00,,,0.00,Wunderground v.1.15,2013-03-16 02:45:00,
2013-03-15 22:55:00,54.5,41.7,29.98,SW,226,3.0,4.0,62,0.00,,,0.00,Wunderground v.1.15,2013-03-16 02:55:00,
2013-03-15 23:05:00,54.6,42.3,29.98,SSE,165,3.0,3.0,63,0.00,,,0.00,Wunderground v.1.15,2013-03-16 03:05:00,
2013-03-15 23:15:00,54.6,42.3,29.98,South,190,3.0,6.0,63,0.00,,,0.00,Wunderground v.1.15,2013-03-16 03:15:00,
2013-03-15 23:20:00,54.6,42.3,29.98,SW,217,3.0,3.0,63,0.00,,,0.00,Wunderground v.1.15,2013-03-16 03:20:00,
2013-03-15 23:30:00,54.8,42.9,29.97,SW,218,4.0,4.0,64,0.00,,,0.00,Wunderground v.1.15,2013-03-16 03:30:00,
2013-03-15 23:40:00,54.9,42.9,29.97,SSE,156,4.0,7.0,64,0.00,,,0.00,Wunderground v.1.15,2013-03-16 03:40:00,
2013-03-15 23:45:00,54.8,43.3,29.97,West,265,3.0,7.0,65,0.00,,,0.00,Wunderground v.1.15,2013-03-16 03:45:00,
2013-03-15 23:55:00,54.7,43.6,29.97,South,181,4.0,4.0,66,0.00,,,0.00,Wunderground v.1.15,2013-03-16 03:55:00,